Time;durP1;ratioP1;P1;durP2;ratioP2;P2;SDS_P1;SDS_P2;PMS_P1;PMS_P2;Temp;Humidity;BMP_temperature;BMP_pressure;BME280_temperature;BME280_humidity;BME280_pressure;Samples;Min_cycle;Max_cycle;Signal;HPM_P1;HPM_P2
2024/02/16 00:02:01;;;;;;;;;6.00;6.00;;;;;-147.14;100.00;58812.66;5054858;28;45453;-46
2024/02/16 00:04:26;;;;;;;;;4.00;4.00;;;;;-147.14;100.00;58812.66;5041287;28;47387;-49
2024/02/16 00:06:51;;;;;;;;;5.67;4.67;;;;;-147.14;100.00;58812.66;5030152;28;49871;-48
2024/02/16 00:09:17;;;;;;;;;7.00;5.33;;;;;-147.14;100.00;58812.66;5053159;28;45531;-47
2024/02/16 00:11:43;;;;;;;;;7.33;7.00;;;;;-147.14;100.00;58812.66;5041210;28;54348;-47
2024/02/16 00:14:08;;;;;;;;;6.00;6.00;;;;;-147.14;100.00;58812.66;5052723;28;46321;-48
2024/02/16 00:16:34;;;;;;;;;5.00;3.33;;;;;-147.14;100.00;58812.66;5041727;28;45396;-46
2024/02/16 00:18:59;;;;;;;;;4.33;3.33;;;;;-147.14;100.00;58812.66;5041779;28;45220;-48
2024/02/16 00:21:24;;;;;;;;;7.00;6.00;;;;;-147.14;100.00;58812.66;5041314;28;45224;-48
2024/02/16 00:23:50;;;;;;;;;7.33;4.67;;;;;-147.14;100.00;58812.66;5041667;28;45953;-48
2024/02/16 00:26:15;;;;;;;;;6.67;5.00;;;;;-147.14;100.00;58812.66;5041641;28;73203;-44
2024/02/16 00:28:41;;;;;;;;;3.00;3.00;;;;;-147.14;100.00;58812.66;5042262;28;64798;-48
2024/02/16 00:31:07;;;;;;;;;7.00;6.00;;;;;-147.14;100.00;58812.66;5047392;28;45487;-48
2024/02/16 00:33:33;;;;;;;;;3.00;3.00;;;;;-147.14;100.00;58812.66;5017625;28;70786;-49
2024/02/16 00:35:58;;;;;;;;;6.00;5.33;;;;;-147.14;100.00;58812.66;5054516;28;45439;-51
2024/02/16 00:38:23;;;;;;;;;6.67;6.00;;;;;-147.14;100.00;58812.66;5056984;28;65899;-46
2024/02/16 00:40:49;;;;;;;;;3.33;3.33;;;;;-147.14;100.00;58812.66;5056607;28;66535;-49
2024/02/16 00:43:15;;;;;;;;;6.00;4.00;;;;;-147.14;100.00;58812.66;5056801;28;75681;-50
2024/02/16 00:45:44;;;;;;;;;11.00;5.00;;;;;-147.14;100.00;58812.66;5045931;28;45831;-48
2024/02/16 00:48:09;;;;;;;;;4.00;4.00;;;;;-147.14;100.00;58812.66;5040514;28;45280;-48
2024/02/16 00:50:34;;;;;;;;;4.00;4.00;;;;;-147.14;100.00;58812.66;5040535;28;57487;-46
2024/02/16 00:53:00;;;;;;;;;5.00;5.00;;;;;-147.14;100.00;58812.66;5057289;28;45316;-48
2024/02/16 00:55:25;;;;;;;;;4.33;4.33;;;;;-147.14;100.00;58812.66;5047086;28;45305;-48
2024/02/16 00:57:50;;;;;;;;;8.00;5.33;;;;;-147.14;100.00;58812.66;5021781;28;68906;-48
2024/02/16 01:00:16;;;;;;;;;5.67;5.00;;;;;-147.14;100.00;58812.66;5025947;28;67135;-49
2024/02/16 01:02:41;;;;;;;;;3.33;3.33;;;;;-147.14;100.00;58812.66;5040876;28;45548;-48
2024/02/16 01:05:09;;;;;;;;;4.67;4.67;;;;;-147.14;100.00;58812.66;5039204;28;72963;-47
2024/02/16 01:07:35;;;;;;;;;7.00;7.00;;;;;-147.14;100.00;58812.66;5040938;28;45390;-47
2024/02/16 01:10:03;;;;;;;;;6.00;5.33;;;;;-147.14;100.00;58812.66;5040547;28;45295;-46
2024/02/16 01:12:30;;;;;;;;;5.00;4.33;;;;;-147.14;100.00;58812.66;5045885;28;46640;-47
2024/02/16 01:14:55;;;;;;;;;4.33;4.33;;;;;-147.14;100.00;58812.66;5045420;28;45472;-45
2024/02/16 01:17:21;;;;;;;;;4.00;4.00;;;;;-147.14;100.00;58812.66;5039379;28;69340;-46
2024/02/16 01:19:46;;;;;;;;;4.00;3.00;;;;;-147.14;100.00;58812.66;5040084;28;58527;-52
2024/02/16 01:22:12;;;;;;;;;3.00;3.00;;;;;-147.14;100.00;58812.66;5039892;28;47064;-49
2024/02/16 01:24:37;;;;;;;;;6.67;5.00;;;;;-147.14;100.00;58812.66;5053546;28;45355;-49
2024/02/16 01:27:03;;;;;;;;;5.00;4.00;;;;;-147.14;100.00;58812.66;5053183;28;45574;-44
2024/02/16 01:29:28;;;;;;;;;4.00;4.00;;;;;-147.14;100.00;58812.66;5036136;28;51219;-49
2024/02/16 01:31:53;;;;;;;;;8.00;5.00;;;;;-147.14;100.00;58812.66;5051257;28;74541;-47
2024/02/16 01:34:19;;;;;;;;;7.33;5.00;;;;;-147.14;100.00;58812.66;5050784;28;73348;-46
2024/02/16 01:36:44;;;;;;;;;7.00;2.00;;;;;-147.14;100.00;58812.66;5057259;28;67447;-45
2024/02/16 01:39:09;;;;;;;;;4.00;4.00;;;;;-147.14;100.00;58812.66;5056360;28;45389;-46
2024/02/16 01:41:38;;;;;;;;;8.33;5.33;;;;;-147.14;100.00;58812.66;5057577;28;71037;-48
2024/02/16 01:44:04;;;;;;;;;7.33;5.00;;;;;-147.14;100.00;58812.66;5058293;28;45482;-48
2024/02/16 01:46:29;;;;;;;;;3.00;2.00;;;;;-147.14;100.00;58812.66;5040782;28;45462;-50
2024/02/16 01:48:55;;;;;;;;;3.33;3.00;;;;;-147.14;100.00;58812.66;5018523;28;68650;-47
2024/02/16 01:51:23;;;;;;;;;3.67;3.67;;;;;-147.14;100.00;58812.66;5040738;28;46177;-46
2024/02/16 01:53:48;;;;;;;;;5.00;5.00;;;;;-147.14;100.00;58812.66;5029839;28;45379;-45
2024/02/16 01:56:14;;;;;;;;;5.00;5.00;;;;;-147.14;100.00;58812.66;5039271;28;67167;-45
2024/02/16 01:58:39;;;;;;;;;7.00;7.00;;;;;-147.14;100.00;58812.66;5028230;28;45298;-49
2024/02/16 02:01:05;;;;;;;;;5.67;5.67;;;;;-147.14;100.00;58812.66;5048159;28;45482;-45
2024/02/16 02:03:30;;;;;;;;;6.00;6.00;;;;;-147.14;100.00;58812.66;5042148;28;45504;-45
2024/02/16 02:05:56;;;;;;;;;4.33;4.33;;;;;-147.14;100.00;58812.66;5040675;28;45418;-46
2024/02/16 02:08:21;;;;;;;;;6.00;5.67;;;;;-147.14;100.00;58812.66;5041035;28;45613;-46
2024/02/16 02:10:46;;;;;;;;;4.67;4.33;;;;;-147.14;100.00;58812.66;5040378;28;46112;-47
2024/02/16 02:13:12;;;;;;;;;6.33;5.33;;;;;-147.14;100.00;58812.66;5040174;28;71476;-47
2024/02/16 02:15:37;;;;;;;;;4.00;4.00;;;;;-147.14;100.00;58812.66;5040567;28;45310;-46
2024/02/16 02:18:03;;;;;;;;;5.67;5.00;;;;;-147.14;100.00;58812.66;5040629;28;65000;-49
2024/02/16 02:20:28;;;;;;;;;5.67;4.00;;;;;-147.14;100.00;58812.66;5039922;28;45383;-49
2024/02/16 02:22:53;;;;;;;;;3.33;3.00;;;;;-147.14;100.00;58812.66;5041254;28;45627;-45
2024/02/16 02:25:19;;;;;;;;;5.00;5.00;;;;;-147.14;100.00;58812.66;5040196;28;45367;-47
2024/02/16 02:27:45;;;;;;;;;6.33;5.00;;;;;-147.14;100.00;58812.66;5050688;28;45395;-47
2024/02/16 02:30:11;;;;;;;;;5.33;5.33;;;;;-147.14;100.00;58812.66;5056295;28;46138;-46
2024/02/16 02:32:36;;;;;;;;;5.00;5.00;;;;;-147.14;100.00;58812.66;5057616;28;45669;-47
2024/02/16 02:35:03;;;;;;;;;4.00;3.67;;;;;-147.14;100.00;58812.66;5040302;28;45814;-45
2024/02/16 02:37:29;;;;;;;;;5.33;4.67;;;;;-147.14;100.00;58812.66;5057936;28;45537;-46
2024/02/16 02:39:55;;;;;;;;;5.00;5.00;;;;;-147.14;100.00;58812.66;5055496;28;45304;-45
2024/02/16 02:42:20;;;;;;;;;4.33;4.33;;;;;-147.14;100.00;58812.66;5036236;28;70920;-46
2024/02/16 02:44:49;;;;;;;;;4.67;4.00;;;;;-147.14;100.00;58812.66;5038583;28;69148;-48
2024/02/16 02:47:17;;;;;;;;;3.33;3.33;;;;;-147.14;100.00;58812.66;5027745;28;45331;-46
2024/02/16 02:49:43;;;;;;;;;6.67;5.00;;;;;-147.14;100.00;58812.66;5045440;28;45445;-46
2024/02/16 02:52:09;;;;;;;;;9.00;4.00;;;;;-147.14;100.00;58812.66;5057184;28;45395;-47
2024/02/16 02:54:34;;;;;;;;;5.33;4.00;;;;;-147.14;100.00;58812.66;5048253;28;45446;-46
2024/02/16 02:56:59;;;;;;;;;5.33;4.67;;;;;-147.14;100.00;58812.66;5039878;28;45526;-46
2024/02/16 02:59:25;;;;;;;;;4.00;4.00;;;;;-147.14;100.00;58812.66;5038476;28;76205;-45
2024/02/16 03:01:50;;;;;;;;;7.33;6.00;;;;;-147.14;100.00;58812.66;5032173;28;73305;-46
2024/02/16 03:04:15;;;;;;;;;7.33;6.00;;;;;-147.14;100.00;58812.66;5039483;28;45440;-47
2024/02/16 03:06:41;;;;;;;;;4.00;4.00;;;;;-147.14;100.00;58812.66;5039840;28;68493;-47
2024/02/16 03:09:06;;;;;;;;;5.00;4.00;;;;;-147.14;100.00;58812.66;5039396;28;46240;-45
2024/02/16 03:11:32;;;;;;;;;3.67;3.67;;;;;-147.14;100.00;58812.66;5039643;28;66277;-47
2024/02/16 03:13:58;;;;;;;;;5.00;4.00;;;;;-147.14;100.00;58812.66;5049739;28;45413;-47
2024/02/16 03:16:23;;;;;;;;;2.67;2.67;;;;;-147.14;100.00;58812.66;5050512;28;69366;-47
2024/02/16 03:18:49;;;;;;;;;5.50;5.50;;;;;-147.14;100.00;58812.66;5038637;28;66728;-46
2024/02/16 03:21:18;;;;;;;;;11.67;5.33;;;;;-147.14;100.00;58812.66;5040196;28;45292;-45
2024/02/16 03:23:43;;;;;;;;;6.00;5.00;;;;;-147.14;100.00;58812.66;5039668;28;45482;-46
2024/02/16 03:26:19;;;;;;;;;4.00;4.00;;;;;-147.14;100.00;58812.66;5038387;28;45463;-48
2024/02/16 03:28:47;;;;;;;;;7.00;5.33;;;;;-147.14;100.00;58812.66;5047113;28;47898;-48
2024/02/16 03:31:17;;;;;;;;;5.00;5.00;;;;;-147.14;100.00;58812.66;5038244;28;45369;-47
2024/02/16 03:33:43;;;;;;;;;6.00;6.00;;;;;-147.14;100.00;58812.66;5040752;28;45383;-47
2024/02/16 03:36:09;;;;;;;;;7.00;5.00;;;;;-147.14;100.00;58812.66;5043677;28;70457;-45
2024/02/16 03:38:34;;;;;;;;;6.00;4.67;;;;;-147.14;100.00;58812.66;5055871;28;46290;-48
2024/02/16 03:41:00;;;;;;;;;6.00;6.00;;;;;-147.14;100.00;58812.66;5053287;28;70089;-46
2024/02/16 03:43:26;;;;;;;;;5.00;4.00;;;;;-147.14;100.00;58812.66;5055550;28;56044;-47
2024/02/16 03:45:51;;;;;;;;;6.00;6.00;;;;;-147.14;100.00;58812.66;5042416;28;45316;-45
2024/02/16 03:48:16;;;;;;;;;6.33;5.33;;;;;-147.14;100.00;58812.66;5037174;28;74435;-47
2024/02/16 03:50:42;;;;;;;;;6.00;4.00;;;;;-147.14;100.00;58812.66;5038237;28;54193;-48
2024/02/16 03:53:07;;;;;;;;;5.67;5.00;;;;;-147.14;100.00;58812.66;5041445;28;67886;-46
2024/02/16 03:55:36;;;;;;;;;8.33;4.33;;;;;-147.14;100.00;58812.66;5056247;28;70565;-48
2024/02/16 03:58:02;;;;;;;;;4.67;4.00;;;;;-147.14;100.00;58812.66;5038268;28;47035;-48
2024/02/16 04:00:28;;;;;;;;;3.67;3.67;;;;;-147.14;100.00;58812.66;5047918;28;45406;-45
2024/02/16 04:02:53;;;;;;;;;1.00;1.00;;;;;-147.14;100.00;58812.66;5057566;28;45478;-49
2024/02/16 04:05:18;;;;;;;;;4.00;4.00;;;;;-147.14;100.00;58812.66;5042856;28;45399;-45
2024/02/16 04:07:44;;;;;;;;;6.00;5.00;;;;;-147.14;100.00;58812.66;5038274;28;74505;-45
2024/02/16 04:10:09;;;;;;;;;5.00;5.00;;;;;-147.14;100.00;58812.66;5040413;28;72092;-47
2024/02/16 04:12:36;;;;;;;;;5.00;5.00;;;;;-147.14;100.00;58812.66;5041666;28;45427;-48
2024/02/16 04:15:01;;;;;;;;;6.67;4.67;;;;;-147.14;100.00;58812.66;5041491;28;45535;-50
2024/02/16 04:17:26;;;;;;;;;5.33;5.00;;;;;-147.14;100.00;58812.66;5041340;28;46260;-45
2024/02/16 04:19:52;;;;;;;;;5.00;5.00;;;;;-147.14;100.00;58812.66;5040684;28;73094;-46
2024/02/16 04:22:17;;;;;;;;;4.00;4.00;;;;;-147.14;100.00;58812.66;5040537;28;68306;-46
2024/02/16 04:24:42;;;;;;;;;6.33;4.33;;;;;-147.14;100.00;58812.66;5041197;28;70291;-45
2024/02/16 04:27:08;;;;;;;;;5.67;5.67;;;;;-147.14;100.00;58812.66;5040542;28;46832;-46
2024/02/16 04:29:33;;;;;;;;;5.00;4.67;;;;;-147.14;100.00;58812.66;5052473;28;72006;-47
2024/02/16 04:31:58;;;;;;;;;7.00;4.00;;;;;-147.14;100.00;58812.66;5059153;28;66984;-49
2024/02/16 04:34:24;;;;;;;;;4.00;2.00;;;;;-147.14;100.00;58812.66;5056567;28;69425;-47
2024/02/16 04:36:49;;;;;;;;;3.67;3.67;;;;;-147.14;100.00;58812.66;5058770;28;45277;-47
2024/02/16 04:39:14;;;;;;;;;7.33;6.00;;;;;-147.14;100.00;58812.66;5056431;28;73137;-46
2024/02/16 04:41:40;;;;;;;;;6.67;5.00;;;;;-147.14;100.00;58812.66;5041991;28;45403;-47
2024/02/16 04:44:05;;;;;;;;;6.33;4.00;;;;;-147.14;100.00;58812.66;5047395;28;45384;-49
2024/02/16 04:46:31;;;;;;;;;8.67;5.67;;;;;-147.14;100.00;58812.66;5039350;28;75505;-48
2024/02/16 04:48:56;;;;;;;;;5.67;4.00;;;;;-147.14;100.00;58812.66;5042046;28;64732;-48
2024/02/16 04:51:22;;;;;;;;;4.00;4.00;;;;;-147.14;100.00;58812.66;5041655;28;45375;-46
2024/02/16 04:53:48;;;;;;;;;4.67;4.67;;;;;-147.14;100.00;58812.66;5023604;28;70216;-47
2024/02/16 04:56:13;;;;;;;;;10.00;3.67;;;;;-147.14;100.00;58812.66;5040627;28;45511;-47
2024/02/16 04:58:42;;;;;;;;;6.00;5.00;;;;;-147.14;100.00;58812.66;5041897;28;53810;-46
2024/02/16 05:01:07;;;;;;;;;8.33;5.33;;;;;-147.14;100.00;58812.66;5055485;28;45498;-46
2024/02/16 05:03:32;;;;;;;;;5.67;5.33;;;;;-147.14;100.00;58812.66;5058148;28;66323;-47
2024/02/16 05:06:00;;;;;;;;;7.00;5.00;;;;;-147.14;100.00;58812.66;5040952;28;65981;-51
2024/02/16 05:08:25;;;;;;;;;5.00;5.00;;;;;-147.14;100.00;58812.66;5042115;28;45297;-48
2024/02/16 05:10:50;;;;;;;;;6.33;5.00;;;;;-147.14;100.00;58812.66;5040877;28;61876;-49
2024/02/16 05:13:16;;;;;;;;;8.67;6.00;;;;;-147.14;100.00;58812.66;5052054;28;60153;-50
2024/02/16 05:15:41;;;;;;;;;8.00;7.00;;;;;-147.14;100.00;58812.66;5040660;28;68882;-49
2024/02/16 05:18:07;;;;;;;;;6.67;5.00;;;;;-147.14;100.00;58812.66;5052590;28;45337;-47
2024/02/16 05:20:32;;;;;;;;;5.00;5.00;;;;;-147.14;100.00;58812.66;5039780;28;45409;-46
2024/02/16 05:22:57;;;;;;;;;3.33;2.00;;;;;-147.14;100.00;58812.66;5046096;28;68522;-47
2024/02/16 05:25:23;;;;;;;;;12.00;6.00;;;;;-147.14;100.00;58812.66;5045623;28;62982;-49
2024/02/16 05:27:48;;;;;;;;;9.33;6.00;;;;;-147.14;100.00;58812.66;5057229;28;59100;-49
2024/02/16 05:30:15;;;;;;;;;4.33;4.33;;;;;-147.14;100.00;58812.66;5056704;28;67532;-47
2024/02/16 05:32:41;;;;;;;;;5.00;5.00;;;;;-147.14;100.00;58812.66;5057572;28;45401;-51
2024/02/16 05:35:17;;;;;;;;;6.00;4.67;;;;;-147.14;100.00;58812.66;5057934;28;45368;-50
2024/02/16 05:37:51;;;;;;;;;8.00;7.00;;;;;-147.14;100.00;58812.66;5055606;28;45480;-47
2024/02/16 05:40:27;;;;;;;;;9.00;5.33;;;;;-147.14;100.00;58812.66;5041295;28;45358;-50
2024/02/16 05:42:53;;;;;;;;;7.00;5.33;;;;;-147.14;100.00;58812.66;5043353;28;45443;-48
2024/02/16 05:45:18;;;;;;;;;6.00;6.00;;;;;-147.14;100.00;58812.66;5046604;28;45401;-49
2024/02/16 05:47:45;;;;;;;;;9.00;6.00;;;;;-147.14;100.00;58812.66;5041008;28;45336;-46
2024/02/16 05:50:14;;;;;;;;;6.67;4.00;;;;;-147.14;100.00;58812.66;5039696;28;45388;-46
2024/02/16 05:52:40;;;;;;;;;6.00;6.00;;;;;-147.14;100.00;58812.66;5040779;28;45445;-47
2024/02/16 05:55:10;;;;;;;;;8.67;7.33;;;;;-147.14;100.00;58812.66;5048700;28;46150;-50
2024/02/16 05:57:35;;;;;;;;;6.00;5.00;;;;;-147.14;100.00;58812.66;5040733;28;45527;-47
2024/02/16 06:00:03;;;;;;;;;8.67;5.33;;;;;-147.14;100.00;58812.66;5040581;28;45225;-50
2024/02/16 06:02:29;;;;;;;;;8.00;8.00;;;;;-147.14;100.00;58812.66;5044830;28;45578;-49
2024/02/16 06:04:55;;;;;;;;;11.67;6.00;;;;;-147.14;100.00;58812.66;5047764;28;46142;-49
2024/02/16 06:07:20;;;;;;;;;5.33;5.33;;;;;-147.14;100.00;58812.66;5043955;28;72029;-49
2024/02/16 06:09:45;;;;;;;;;7.33;7.00;;;;;-147.14;100.00;58812.66;5058131;28;49423;-47
2024/02/16 06:12:12;;;;;;;;;6.00;6.00;;;;;-147.14;100.00;58812.66;5044529;28;45351;-47
2024/02/16 06:14:38;;;;;;;;;5.33;5.00;;;;;-147.14;100.00;58812.66;5047438;28;45380;-47
2024/02/16 06:17:03;;;;;;;;;8.67;5.00;;;;;-147.14;100.00;58812.66;5040591;28;45269;-48
2024/02/16 06:19:29;;;;;;;;;12.33;5.67;;;;;-147.14;100.00;58812.66;5037756;28;45359;-48
2024/02/16 06:21:55;;;;;;;;;7.33;6.67;;;;;-147.14;100.00;58812.66;5040454;28;45277;-50
2024/02/16 06:24:23;;;;;;;;;7.33;5.67;;;;;-147.14;100.00;58812.66;5039612;28;47231;-45
2024/02/16 06:26:49;;;;;;;;;5.33;5.00;;;;;-147.14;100.00;58812.66;5045531;28;45374;-46
2024/02/16 06:29:14;;;;;;;;;5.00;5.00;;;;;-147.14;100.00;58812.66;5056860;28;45295;-47
2024/02/16 06:31:40;;;;;;;;;9.67;8.33;;;;;-147.14;100.00;58812.66;5052537;28;70312;-47
2024/02/16 06:34:05;;;;;;;;;8.67;6.00;;;;;-147.14;100.00;58812.66;5055715;28;75774;-48
2024/02/16 06:36:30;;;;;;;;;8.00;5.33;;;;;-147.14;100.00;58812.66;5054360;28;47404;-48
2024/02/16 06:38:56;;;;;;;;;7.00;5.00;;;;;-147.14;100.00;58812.66;5055035;28;70296;-49
2024/02/16 06:41:21;;;;;;;;;5.00;5.00;;;;;-147.14;100.00;58812.66;5052504;28;66950;-45
2024/02/16 06:43:46;;;;;;;;;8.33;6.67;;;;;-147.14;100.00;58812.66;5044667;28;73216;-48
2024/02/16 06:46:11;;;;;;;;;11.00;7.00;;;;;-147.14;100.00;58812.66;5039023;28;72158;-48
2024/02/16 06:48:37;;;;;;;;;6.67;4.33;;;;;-147.14;100.00;58812.66;5039071;28;69585;-46
2024/02/16 06:51:02;;;;;;;;;9.67;8.67;;;;;-147.14;100.00;58812.66;5039642;28;61544;-46
2024/02/16 06:53:27;;;;;;;;;2.00;1.67;;;;;-147.14;100.00;58812.66;5039080;28;46123;-46
2024/02/16 06:55:53;;;;;;;;;7.33;5.67;;;;;-147.14;100.00;58812.66;5039295;28;73154;-48
2024/02/16 06:58:18;;;;;;;;;10.33;7.67;;;;;-147.14;100.00;58812.66;5048539;28;46048;-46
2024/02/16 07:00:43;;;;;;;;;5.67;5.67;;;;;-147.14;100.00;58812.66;5049077;28;69468;-47
2024/02/16 07:03:09;;;;;;;;;5.67;5.33;;;;;-147.14;100.00;58812.66;5039279;28;46027;-45
2024/02/16 07:05:35;;;;;;;;;7.00;5.67;;;;;-147.14;100.00;58812.66;5038948;28;72140;-47
2024/02/16 07:08:00;;;;;;;;;7.33;7.00;;;;;-147.14;100.00;58812.66;5050131;28;45327;-46
2024/02/16 07:10:25;;;;;;;;;6.33;6.33;;;;;-147.14;100.00;58812.66;5041193;28;45540;-46
2024/02/16 07:12:51;;;;;;;;;3.33;3.33;;;;;-147.14;100.00;58812.66;5048018;28;76354;-47
2024/02/16 07:15:16;;;;;;;;;4.00;3.33;;;;;-147.14;100.00;58812.66;5039129;28;71882;-45
2024/02/16 07:17:41;;;;;;;;;5.67;4.00;;;;;-147.14;100.00;58812.66;5047709;28;67622;-44
2024/02/16 07:20:07;;;;;;;;;5.00;4.67;;;;;-147.14;100.00;58812.66;5054596;28;63785;-45
2024/02/16 07:22:33;;;;;;;;;7.00;4.00;;;;;-147.14;100.00;58812.66;5039937;28;46640;-46
2024/02/16 07:24:59;;;;;;;;;5.33;4.00;;;;;-147.14;100.00;58812.66;5043555;28;45691;-46
2024/02/16 07:27:25;;;;;;;;;4.00;3.33;;;;;-147.14;100.00;58812.66;5047117;28;45436;-47
2024/02/16 07:29:51;;;;;;;;;5.00;5.00;;;;;-147.14;100.00;58812.66;5053036;28;45412;-46
2024/02/16 07:32:16;;;;;;;;;5.67;4.00;;;;;-147.14;100.00;58812.66;5055472;28;72103;-46
2024/02/16 07:34:45;;;;;;;;;6.00;5.00;;;;;-147.14;100.00;58812.66;5054386;28;60657;-46
2024/02/16 07:37:11;;;;;;;;;6.67;5.67;;;;;-147.14;100.00;58812.66;5056246;28;45298;-45
2024/02/16 07:39:36;;;;;;;;;5.00;4.00;;;;;-147.14;100.00;58812.66;5042434;28;64772;-46
2024/02/16 07:42:01;;;;;;;;;4.67;4.00;;;;;-147.14;100.00;58812.66;5056130;28;60701;-48
2024/02/16 07:44:28;;;;;;;;;3.00;3.00;;;;;-147.14;100.00;58812.66;5042218;28;71885;-44
2024/02/16 07:46:53;;;;;;;;;5.00;3.00;;;;;-147.14;100.00;58812.66;5042706;28;45339;-49
2024/02/16 07:49:18;;;;;;;;;3.67;3.00;;;;;-147.14;100.00;58812.66;5043433;28;62523;-46
2024/02/16 07:51:44;;;;;;;;;1.00;1.00;;;;;-147.14;100.00;58812.66;5060122;28;63254;-45
2024/02/16 07:54:09;;;;;;;;;5.67;3.00;;;;;-147.14;100.00;58812.66;5048895;28;72067;-45
2024/02/16 07:56:34;;;;;;;;;2.00;1.00;;;;;-147.14;100.00;58812.66;5052504;28;45332;-46
2024/02/16 07:59:00;;;;;;;;;4.00;2.00;;;;;-147.14;100.00;58812.66;5042645;28;50103;-44
2024/02/16 08:01:25;;;;;;;;;1.00;1.00;;;;;-147.14;100.00;58812.66;5058685;28;45511;-48
2024/02/16 08:03:51;;;;;;;;;3.67;2.00;;;;;-147.14;100.00;58812.66;5057148;28;71839;-48
2024/02/16 08:06:20;;;;;;;;;6.00;3.00;;;;;-147.14;100.00;58812.66;5059544;28;45235;-46
2024/02/16 08:08:46;;;;;;;;;0.33;0.33;;;;;-147.14;100.00;58812.66;5058172;28;45271;-46
2024/02/16 08:11:12;;;;;;;;;1.00;1.00;;;;;-147.14;100.00;58812.66;5059150;28;46629;-45
2024/02/16 08:13:37;;;;;;;;;3.00;1.33;;;;;-147.14;100.00;58812.66;5044575;28;61650;-46
2024/02/16 08:16:06;;;;;;;;;1.00;1.00;;;;;-147.14;100.00;58812.66;5034116;28;46019;-46
2024/02/16 08:18:32;;;;;;;;;0.00;0.00;;;;;-147.14;100.00;58812.66;5044830;28;45687;-45
2024/02/16 08:20:57;;;;;;;;;2.00;2.00;;;;;-147.14;100.00;58812.66;5042024;28;48735;-46
2024/02/16 08:23:23;;;;;;;;;2.00;2.00;;;;;-147.14;100.00;58812.66;5041936;28;61530;-45
2024/02/16 08:25:48;;;;;;;;;0.33;0.33;;;;;-147.14;100.00;58812.66;5043435;28;45301;-48
2024/02/16 08:28:14;;;;;;;;;2.00;1.67;;;;;-147.14;100.00;58812.66;5055413;28;52422;-48
2024/02/16 08:30:41;;;;;;;;;1.67;1.00;;;;;-147.14;100.00;58812.66;5058918;28;46895;-47
2024/02/16 08:33:07;;;;;;;;;7.33;1.00;;;;;-147.14;100.00;58812.66;5057934;28;45462;-47
2024/02/16 08:35:32;;;;;;;;;0.67;0.00;;;;;-147.14;100.00;58812.66;5058940;28;45617;-46
2024/02/16 08:37:57;;;;;;;;;0.00;0.00;;;;;-147.14;100.00;58812.66;5055651;28;71469;-49
2024/02/16 08:40:23;;;;;;;;;2.00;2.00;;;;;-147.14;100.00;58812.66;5056785;28;75596;-46
2024/02/16 08:42:49;;;;;;;;;0.00;0.00;;;;;-147.14;100.00;58812.66;5057951;28;45580;-46
2024/02/16 08:45:17;;;;;;;;;1.67;1.00;;;;;-147.14;100.00;58812.66;5049116;28;62278;-51
2024/02/16 08:47:43;;;;;;;;;3.00;2.00;;;;;-147.14;100.00;58812.66;5041728;28;45399;-47
2024/02/16 08:50:09;;;;;;;;;4.33;1.00;;;;;-147.14;100.00;58812.66;5040803;28;45775;-45
2024/02/16 08:52:34;;;;;;;;;0.00;0.00;;;;;-147.14;100.00;58812.66;5041661;28;45276;-48
2024/02/16 08:55:00;;;;;;;;;2.00;1.67;;;;;-147.14;100.00;58812.66;5049920;28;45761;-46
2024/02/16 08:57:25;;;;;;;;;1.67;1.00;;;;;-147.14;100.00;58812.66;5039992;28;59070;-46
2024/02/16 08:59:50;;;;;;;;;1.00;1.00;;;;;-147.14;100.00;58812.66;5043960;28;75655;-47
2024/02/16 09:02:15;;;;;;;;;1.00;1.00;;;;;-147.14;100.00;58812.66;5039955;28;71649;-47
2024/02/16 09:04:41;;;;;;;;;5.00;4.67;;;;;-147.14;100.00;58812.66;5049689;28;48815;-45
2024/02/16 09:07:06;;;;;;;;;0.67;0.67;;;;;-147.14;100.00;58812.66;5044518;28;45616;-46
2024/02/16 09:09:33;;;;;;;;;1.00;1.00;;;;;-147.14;100.00;58812.66;5040868;28;46127;-46
2024/02/16 09:11:58;;;;;;;;;1.00;1.00;;;;;-147.14;100.00;58812.66;5042796;28;45379;-45
2024/02/16 09:14:24;;;;;;;;;1.75;0.50;;;;;-147.14;100.00;58812.66;5049503;28;67668;-45
2024/02/16 09:16:52;;;;;;;;;1.67;1.00;;;;;-147.14;100.00;58812.66;5041141;28;45507;-48
2024/02/16 09:19:19;;;;;;;;;2.00;0.00;;;;;-147.14;100.00;58812.66;5041721;28;46102;-45
2024/02/16 09:21:45;;;;;;;;;1.00;1.00;;;;;-147.14;100.00;58812.66;5043467;28;45285;-47
2024/02/16 09:24:14;;;;;;;;;1.33;0.67;;;;;-147.14;100.00;58812.66;5040512;28;45444;-46
2024/02/16 09:26:39;;;;;;;;;1.00;1.00;;;;;-147.14;100.00;58812.66;5057325;28;45347;-48
2024/02/16 09:29:06;;;;;;;;;1.00;1.00;;;;;-147.14;100.00;58812.66;5058029;28;69454;-49
2024/02/16 09:31:31;;;;;;;;;1.33;1.00;;;;;-147.14;100.00;58812.66;5046044;28;45363;-47
2024/02/16 09:33:57;;;;;;;;;2.00;1.00;;;;;-147.14;100.00;58812.66;5048979;28;50453;-46
2024/02/16 09:36:23;;;;;;;;;0.33;0.33;;;;;-147.14;100.00;58812.66;5038536;28;45433;-47
2024/02/16 09:38:48;;;;;;;;;2.00;0.33;;;;;-147.14;100.00;58812.66;5048675;28;46214;-46
2024/02/16 09:41:15;;;;;;;;;1.00;1.00;;;;;-147.14;100.00;58812.66;5054685;28;45495;-46
2024/02/16 09:43:41;;;;;;;;;2.00;0.67;;;;;-147.14;100.00;58812.66;5058725;28;45398;-47
2024/02/16 09:46:08;;;;;;;;;2.00;2.00;;;;;-147.14;100.00;58812.66;5042096;28;45347;-46
2024/02/16 09:48:34;;;;;;;;;1.00;1.00;;;;;-147.14;100.00;58812.66;5039771;28;45422;-46
2024/02/16 09:50:59;;;;;;;;;1.00;1.00;;;;;-147.14;100.00;58812.66;5040225;28;45371;-47
2024/02/16 09:53:27;;;;;;;;;2.00;1.00;;;;;-147.14;100.00;58812.66;5034931;28;45738;-45
2024/02/16 09:55:52;;;;;;;;;1.00;1.00;;;;;-147.14;100.00;58812.66;5023113;28;45437;-47
2024/02/16 09:58:18;;;;;;;;;1.00;1.00;;;;;-147.14;100.00;58812.66;5039611;28;46342;-46
2024/02/16 10:00:55;;;;;;;;;2.00;2.00;;;;;-147.14;100.00;58812.66;5048490;28;45463;-46
2024/02/16 10:03:28;;;;;;;;;1.00;1.00;;;;;-147.14;100.00;58812.66;5039882;28;45370;-50
2024/02/16 10:06:11;;;;;;;;;3.67;2.67;;;;;-147.14;100.00;58812.66;5040028;28;45530;-48
2024/02/16 10:08:50;;;;;;;;;1.33;1.33;;;;;-147.14;100.00;58812.66;5040411;28;45379;-47
2024/02/16 10:11:16;;;;;;;;;3.33;3.00;;;;;-147.14;100.00;58812.66;5048191;28;45303;-47
2024/02/16 10:13:41;;;;;;;;;3.33;3.33;;;;;-147.14;100.00;58812.66;5040421;28;45470;-48
2024/02/16 10:16:09;;;;;;;;;4.67;3.67;;;;;-147.14;100.00;58812.66;5049949;28;45571;-45
2024/02/16 10:18:35;;;;;;;;;5.33;3.67;;;;;-147.14;100.00;58812.66;5036352;28;47966;-48
2024/02/16 10:21:00;;;;;;;;;2.33;2.33;;;;;-147.14;100.00;58812.66;5050179;28;45349;-45
2024/02/16 10:23:26;;;;;;;;;3.00;2.67;;;;;-147.14;100.00;58812.66;5038295;28;45880;-45
2024/02/16 10:25:51;;;;;;;;;4.67;4.67;;;;;-147.14;100.00;58812.66;5048021;28;45653;-47
2024/02/16 10:28:17;;;;;;;;;6.33;6.33;;;;;-147.14;100.00;58812.66;5040593;28;74394;-49
2024/02/16 10:30:44;;;;;;;;;7.33;7.33;;;;;-147.14;100.00;58812.66;5057089;28;73141;-46
2024/02/16 10:33:12;;;;;;;;;15.67;13.67;;;;;-147.14;100.00;58812.66;5039344;28;45420;-46
2024/02/16 10:35:38;;;;;;;;;17.67;11.33;;;;;-147.14;100.00;58812.66;5058138;28;45667;-48
2024/02/16 10:38:06;;;;;;;;;15.00;15.00;;;;;-147.14;100.00;58812.66;5037400;28;46056;-47
2024/02/16 10:40:33;;;;;;;;;17.00;15.33;;;;;-147.14;100.00;58812.66;5057248;28;45296;-47
2024/02/16 10:43:03;;;;;;;;;16.00;16.00;;;;;-147.14;100.00;58812.66;5037411;28;45388;-46
2024/02/16 10:45:30;;;;;;;;;17.67;17.67;;;;;-147.14;100.00;58812.66;5027995;28;45378;-47
2024/02/16 10:47:55;;;;;;;;;14.33;14.33;;;;;-147.14;100.00;58812.66;5040165;28;45373;-49
2024/02/16 10:50:20;;;;;;;;;15.33;15.33;;;;;-147.14;100.00;58812.66;5037413;28;72873;-47
2024/02/16 10:52:47;;;;;;;;;15.33;15.00;;;;;-147.14;100.00;58812.66;5040179;28;67997;-46
2024/02/16 10:55:13;;;;;;;;;21.67;18.67;;;;;-147.14;100.00;58812.66;5047033;28;45697;-46
2024/02/16 10:57:39;;;;;;;;;22.33;19.67;;;;;-147.14;100.00;58812.66;5039443;28;46344;-48
2024/02/16 11:00:12;;;;;;;;;20.00;17.33;;;;;-147.14;100.00;58812.66;5039129;28;45221;-47
2024/02/16 11:02:58;;;;;;;;;19.33;19.33;;;;;-147.14;100.00;58812.66;5027419;28;45523;-48
2024/02/16 11:05:42;;;;;;;;;18.00;17.00;;;;;-147.14;100.00;58812.66;5055689;28;45545;-48